Time;durP1;ratioP1;P1;durP2;ratioP2;P2;SDS_P1;SDS_P2;PMS_P1;PMS_P2;Temp;Humidity;BMP_temperature;BMP_pressure;BME280_temperature;BME280_humidity;BME280_pressure;Samples;Min_cycle;Max_cycle;Signal;HPM_P1;HPM_P2
2021/12/02 00:00:28;;;;;;;0.40;0.30;;;6.10;1.40;;;6.77;100.00;93686.63;647636;212;42436;-76
2021/12/02 00:03:10;;;;;;;0.40;0.30;;;6.20;1.40;;;6.83;100.00;93679.19;646986;216;31559;-75
2021/12/02 00:05:52;;;;;;;0.40;0.20;;;6.20;1.40;;;6.84;100.00;93693.22;627231;220;32073;-76
2021/12/02 00:08:33;;;;;;;1.20;0.30;;;6.20;1.40;;;6.88;100.00;93689.44;647952;212;31603;-76
2021/12/02 00:11:16;;;;;;;0.30;0.20;;;6.20;1.40;;;6.92;100.00;93691.56;647673;216;31509;-75
2021/12/02 00:13:59;;;;;;;0.50;0.50;;;6.30;1.40;;;6.85;100.00;93700.99;646651;216;31466;-75
2021/12/02 00:22:14;;;;;;;0.50;0.30;;;6.00;1.40;;;6.63;100.00;93671.17;646810;212;31509;-76
2021/12/02 00:24:56;;;;;;;0.40;0.30;;;6.10;1.40;;;6.66;100.00;93697.77;646401;212;31574;-76
2021/12/02 00:27:38;;;;;;;0.40;0.20;;;6.00;1.40;;;6.58;100.00;93696.66;647103;212;31558;-76
2021/12/02 00:30:20;;;;;;;0.40;0.20;;;6.00;1.40;;;6.54;100.00;93678.74;647230;212;32073;-76
2021/12/02 00:35:51;;;;;;;0.40;0.40;;;6.00;1.40;;;6.55;100.00;93683.80;646280;212;31514;-75
2021/12/02 00:38:36;;;;;;;0.40;0.30;;;5.90;1.40;;;6.57;100.00;93692.97;646862;216;42206;-76
2021/12/02 00:41:17;;;;;;;0.50;0.20;;;6.00;1.40;;;6.63;100.00;93680.55;645863;212;37078;-76
2021/12/02 00:43:59;;;;;;;0.40;0.20;;;6.00;1.40;;;6.66;100.00;93698.53;620471;226;32784;-76
2021/12/02 00:46:42;;;;;;;0.40;0.30;;;6.00;1.40;;;6.67;100.00;93693.03;647945;216;31607;-76
2021/12/02 00:49:23;;;;;;;0.40;0.30;;;6.00;1.40;;;6.67;100.00;93697.63;646676;212;31515;-76
2021/12/02 00:52:04;;;;;;;0.40;0.20;;;6.00;1.40;;;6.56;100.00;93705.27;646560;212;31525;-76
2021/12/02 00:54:47;;;;;;;0.40;0.20;;;5.90;1.40;;;6.53;100.00;93705.33;620423;226;31819;-76
2021/12/02 00:57:29;;;;;;;0.40;0.40;;;5.90;1.40;;;6.44;100.00;93716.88;646785;212;42318;-76
2021/12/02 01:01:51;;;;;;;0.40;0.20;;;5.70;1.40;;;6.22;100.00;93707.88;647007;212;31676;-76
2021/12/02 01:04:34;;;;;;;0.40;0.20;;;5.60;1.40;;;6.22;100.00;93707.35;646543;212;32090;-76
2021/12/02 01:07:16;;;;;;;0.40;0.20;;;5.50;1.40;;;6.16;100.00;93705.45;645370;212;31502;-76
2021/12/02 01:09:57;;;;;;;0.40;0.30;;;5.60;1.40;;;6.20;100.00;93702.59;646648;216;31591;-77
2021/12/02 01:12:39;;;;;;;0.40;0.30;;;5.50;1.40;;;6.05;100.00;93714.29;619382;225;31970;-76
2021/12/02 01:15:25;;;;;;;0.50;0.50;;;5.40;1.40;;;5.95;100.00;93717.40;647595;216;42274;-76
2021/12/02 01:18:06;;;;;;;0.30;0.20;;;5.30;1.40;;;5.97;100.00;93713.73;647550;216;31879;-77
2021/12/02 01:20:48;;;;;;;0.40;0.20;;;5.40;1.40;;;5.96;100.00;93713.39;646933;216;32079;-76
2021/12/02 01:23:30;;;;;;;0.40;0.20;;;5.40;1.40;;;6.03;100.00;93726.39;646037;212;42423;-76
2021/12/02 01:26:13;;;;;;;0.40;0.20;;;5.40;1.40;;;5.92;100.00;93715.48;647230;216;32030;-76
2021/12/02 01:29:02;;;;;;;0.40;0.22;;;5.20;1.40;;;5.97;100.00;93720.91;646818;212;31469;-75
2021/12/02 01:31:48;;;;;;;0.40;0.20;;;5.50;1.40;;;6.05;100.00;93714.94;618495;226;32630;-76
2021/12/02 01:35:51;;;;;;;0.50;0.50;;;5.50;1.40;;;5.96;100.00;93709.42;646656;212;31481;-76
2021/12/02 01:38:32;;;;;;;0.40;0.30;;;5.40;1.40;;;5.93;100.00;93715.88;645840;216;31501;-76
2021/12/02 01:41:14;;;;;;;0.40;0.20;;;5.40;1.40;;;5.94;100.00;93701.53;647327;212;31507;-76
2021/12/02 01:43:58;;;;;;;0.60;0.50;;;5.40;1.40;;;5.87;100.00;93701.11;647540;212;31501;-76
2021/12/02 01:49:15;;;;;;;0.40;0.25;;;5.30;1.40;;;5.75;100.00;93701.24;619498;222;31888;-76
2021/12/02 01:51:56;;;;;;;0.40;0.20;;;5.10;1.40;;;5.75;100.00;93704.14;647371;212;31511;-76
2021/12/02 01:54:38;;;;;;;1.10;0.45;;;5.10;1.40;;;5.90;100.00;93705.72;646023;216;31509;-76
2021/12/02 01:57:27;;;;;;;0.40;0.20;;;5.20;1.40;;;5.77;100.00;93703.94;646180;216;42232;-76
2021/12/02 02:00:15;;;;;;;0.60;0.20;;;5.10;1.40;;;5.69;100.00;93709.59;648413;212;31513;-76
2021/12/02 02:02:57;;;;;;;0.40;0.30;;;5.00;1.40;;;5.75;100.00;93709.79;646349;216;31702;-76
2021/12/02 02:05:38;;;;;;;0.40;0.40;;;5.20;1.40;;;5.80;100.00;93716.10;637892;216;32264;-76
2021/12/02 02:08:21;;;;;;;0.40;0.30;;;5.10;1.40;;;5.72;100.00;93711.94;645539;216;32221;-76
2021/12/02 02:11:02;;;;;;;0.40;0.30;;;5.00;1.40;;;5.73;100.00;93714.75;646626;216;31506;-76
2021/12/02 02:13:44;;;;;;;0.40;0.30;;;5.10;1.40;;;5.72;100.00;93712.67;647322;216;31496;-76
2021/12/02 02:16:25;;;;;;;0.60;0.30;;;5.10;1.40;;;5.80;100.00;93721.66;646716;216;31514;-76
2021/12/02 02:19:10;;;;;;;0.40;0.20;;;5.20;1.40;;;5.94;100.00;93725.65;646939;212;31562;-76
2021/12/02 02:21:48;;;;;;;0.40;0.20;;;5.20;1.40;;;5.92;100.00;93716.25;647020;212;31518;-76
2021/12/02 02:24:31;;;;;;;0.40;0.30;;;5.30;1.40;;;5.99;100.00;93712.71;618605;226;31822;-76
2021/12/02 02:27:12;;;;;;;0.40;0.30;;;5.30;1.40;;;6.12;100.00;93712.66;647140;216;31541;-75
2021/12/02 02:29:53;;;;;;;0.60;0.50;;;5.40;1.40;;;6.08;100.00;93716.49;647374;212;42124;-76
2021/12/02 02:32:36;;;;;;;0.68;0.32;;;5.50;1.40;;;6.14;100.00;93714.30;647100;212;31528;-75
2021/12/02 02:35:51;;;;;;;0.40;0.20;;;5.50;1.40;;;6.03;100.00;93723.88;645187;212;31544;-76
2021/12/02 02:38:33;;;;;;;0.40;0.30;;;5.40;1.40;;;6.00;100.00;93712.02;619052;222;31861;-76
2021/12/02 02:41:19;;;;;;;0.40;0.30;;;5.40;1.40;;;5.94;100.00;93721.45;618515;222;31867;-76
2021/12/02 02:43:57;;;;;;;1.08;0.28;;;5.40;1.40;;;5.86;100.00;93714.69;647662;212;42265;-76
2021/12/02 02:46:38;;;;;;;0.40;0.28;;;5.30;1.40;;;5.83;100.00;93718.10;619940;225;42474;-76
2021/12/02 02:49:19;;;;;;;0.50;0.40;;;5.20;1.40;;;5.80;100.00;93723.96;646668;212;32038;-76
2021/12/02 02:52:04;;;;;;;0.40;0.30;;;5.10;1.40;;;5.71;100.00;93732.05;647371;212;31700;-76
2021/12/02 02:54:46;;;;;;;0.50;0.30;;;5.10;1.40;;;5.72;100.00;93737.15;645270;212;42457;-76
2021/12/02 03:00:07;;;;;;;0.40;0.20;;;5.00;1.40;;;5.59;100.00;93733.56;647412;212;42244;-76
2021/12/02 03:02:56;;;;;;;2.70;1.00;;;4.90;1.40;;;5.47;100.00;93728.84;646923;212;31518;-77
2021/12/02 03:05:38;;;;;;;0.70;0.40;;;4.90;1.40;;;5.46;100.00;93730.17;639387;212;42279;-76
2021/12/02 03:08:17;;;;;;;0.40;0.37;;;4.80;1.40;;;5.41;100.00;93730.75;646734;216;31516;-76
2021/12/02 03:10:57;;;;;;;0.40;0.30;;;4.90;1.40;;;5.46;100.00;93729.25;645570;212;31517;-76
2021/12/02 03:13:39;;;;;;;0.60;0.40;;;4.90;1.40;;;5.50;100.00;93735.10;647407;212;31526;-77
2021/12/02 03:19:05;;;;;;;0.68;0.30;;;4.90;1.40;;;5.49;100.00;93746.58;619963;223;32037;-75
2021/12/02 03:21:47;;;;;;;0.40;0.20;;;4.90;1.40;;;5.25;100.00;93750.93;619576;226;31947;-77
2021/12/02 03:24:29;;;;;;;0.40;0.20;;;4.50;1.40;;;4.92;100.00;93748.63;646539;216;31537;-75
2021/12/02 03:27:11;;;;;;;0.40;0.20;;;4.10;1.40;;;4.63;100.00;93752.42;645534;216;31621;-76
2021/12/02 03:29:53;;;;;;;0.40;0.20;;;3.80;1.40;;;4.34;100.00;93762.88;647879;212;31586;-75
2021/12/02 03:32:38;;;;;;;0.40;0.20;;;3.50;1.40;;;4.15;100.00;93758.64;647074;216;31521;-76
2021/12/02 03:35:57;;;;;;;0.40;0.20;;;3.30;1.40;;;4.05;100.00;93750.83;646844;216;31657;-78
2021/12/02 03:38:39;;;;;;;0.40;0.20;;;3.20;1.40;;;4.02;100.00;93747.42;646813;212;31504;-78
2021/12/02 03:41:24;;;;;;;0.40;0.20;;;3.20;1.40;;;3.95;100.00;93748.02;645652;212;31506;-77
2021/12/02 03:44:06;;;;;;;0.40;0.20;;;3.20;1.40;;;3.92;100.00;93750.50;646647;216;31502;-77
2021/12/02 03:46:47;;;;;;;0.40;0.20;;;3.10;1.40;;;3.90;100.00;93738.94;647221;216;42117;-78
2021/12/02 03:49:29;;;;;;;0.40;0.20;;;3.10;1.40;;;3.85;100.00;93735.73;647635;216;31549;-77
2021/12/02 03:54:48;;;;;;;0.40;0.20;;;3.10;1.40;;;3.86;100.00;93742.08;619081;222;31971;-78
2021/12/02 03:57:32;;;;;;;0.40;0.20;;;3.10;1.40;;;3.82;100.00;93733.55;645755;216;31503;-77
2021/12/02 04:00:13;;;;;;;0.40;0.20;;;3.10;1.40;;;3.93;100.00;93730.31;647292;212;31581;-75
2021/12/02 04:02:55;;;;;;;0.45;0.40;;;3.20;1.40;;;3.95;100.00;93729.50;647802;216;31534;-77
2021/12/02 04:05:37;;;;;;;0.40;0.20;;;3.20;1.40;;;3.98;100.00;93738.78;639478;216;31646;-76
2021/12/02 04:08:31;;;;;;;0.40;0.20;;;3.20;1.40;;;4.04;100.00;93729.50;647085;215;31840;-76
2021/12/02 04:11:22;;;;;;;0.40;0.20;;;3.20;1.40;;;4.06;100.00;93728.66;647327;212;31741;-75
2021/12/02 04:14:09;;;;;;;0.40;0.20;;;3.20;1.40;;;4.06;100.00;93727.38;646083;212;31552;-75
2021/12/02 04:16:53;;;;;;;0.40;0.20;;;3.20;1.40;;;4.12;100.00;93725.75;646878;212;31516;-77
2021/12/02 04:19:37;;;;;;;0.40;0.20;;;3.20;1.40;;;4.14;100.00;93721.56;645421;216;31596;-78
2021/12/02 04:22:24;;;;;;;0.40;0.20;;;3.20;1.40;;;4.09;100.00;93726.17;619521;226;31829;-78
2021/12/02 04:25:08;;;;;;;0.62;0.35;;;3.20;1.40;;;4.18;100.00;93732.50;630978;222;31692;-78
2021/12/02 04:27:53;;;;;;;0.40;0.20;;;3.10;1.40;;;4.18;100.00;93725.44;645482;212;31782;-76
2021/12/02 04:30:34;;;;;;;0.40;0.20;;;3.20;1.40;;;4.21;100.00;93727.11;619831;226;31830;-75
2021/12/02 04:35:53;;;;;;;;;;;3.20;1.40;;;4.14;100.00;93715.98;653649;212;24766;-78
2021/12/02 04:38:40;;;;;;;;;;;3.20;1.40;;;4.18;100.00;93714.87;648851;215;24853;-75
2021/12/02 04:41:25;;;;;;;;;;;3.20;1.40;;;4.20;100.00;93718.30;653613;216;25344;-79
2021/12/02 04:44:06;;;;;;;;;;;3.20;1.40;;;4.29;100.00;93720.63;653054;216;24815;-78
2021/12/02 04:46:49;;;;;;;;;;;3.30;1.40;;;4.45;100.00;93720.64;654301;216;24734;-78
2021/12/02 04:49:29;;;;;;;;;;;3.30;1.40;;;4.45;100.00;93722.73;648288;216;25643;-76
2021/12/02 04:52:10;;;;;;;;;;;3.30;1.40;;;4.51;100.00;93728.81;652852;216;24815;-79
2021/12/02 04:54:51;;;;;;;;;;;3.30;1.40;;;4.50;100.00;93726.84;653604;212;25097;-78
2021/12/02 04:57:33;;;;;;;;;;;3.30;1.40;;;4.42;100.00;93727.69;652600;216;25589;-78
2021/12/02 05:00:14;;;;;;;;;;;3.40;1.40;;;4.54;100.00;93731.34;649366;217;24810;-78
2021/12/02 05:02:56;;;;;;;;;;;3.40;1.40;;;4.56;100.00;93738.39;654067;212;25103;-76
2021/12/02 05:05:40;;;;;;;;;;;3.40;1.40;;;4.55;100.00;93742.77;645380;213;24756;-77
2021/12/02 05:08:22;;;;;;;;;;;3.50;1.40;;;4.44;100.00;93745.02;655221;216;25311;-77
2021/12/02 05:11:06;;;;;;;;;;;3.60;1.40;;;4.43;100.00;93741.66;652279;216;24746;-75
2021/12/02 05:13:54;;;;;;;;;;;3.60;1.40;;;4.45;100.00;93744.39;652523;216;24827;-75
2021/12/02 05:16:35;;;;;;;;;;;3.70;1.40;;;4.41;100.00;93745.89;654064;216;24824;-75
2021/12/02 05:19:16;;;;;;;;;;;3.70;1.40;;;4.41;100.00;93747.88;654374;212;25036;-75
2021/12/02 05:21:58;;;;;;;;;;;3.80;1.40;;;4.46;100.00;93746.09;654282;214;24808;-75
2021/12/02 05:24:41;;;;;;;;;;;3.80;1.40;;;4.42;100.00;93741.25;655875;216;24732;-77
2021/12/02 05:27:25;;;;;;;;;;;3.80;1.40;;;4.48;100.00;93745.53;626810;225;25724;-77
2021/12/02 05:30:09;;;;;;;;;;;3.80;1.40;;;4.46;100.00;93756.09;649163;216;24823;-77
2021/12/02 05:32:50;;;;;;;;;;;3.80;1.40;;;4.40;100.00;93746.77;653670;212;24887;-77
2021/12/02 05:35:53;;;;;;;0.40;0.40;;;3.70;1.40;;;4.37;100.00;93747.08;647259;216;42188;-75
2021/12/02 05:38:37;;;;;;;0.65;0.45;;;3.70;1.40;;;4.33;100.00;93746.53;646606;216;31702;-78
2021/12/02 05:41:25;;;;;;;0.50;0.50;;;3.70;1.40;;;4.29;100.00;93745.41;646479;212;31528;-74
2021/12/02 05:44:12;;;;;;;0.40;0.20;;;3.70;1.40;;;4.24;100.00;93742.92;647143;212;31588;-78
2021/12/02 05:47:00;;;;;;;0.52;0.37;;;3.60;1.40;;;4.22;100.00;93746.56;647273;212;31560;-74
2021/12/02 05:49:48;;;;;;;0.55;0.30;;;3.60;1.40;;;4.24;100.00;93746.41;619934;226;31868;-78
2021/12/02 05:52:31;;;;;;;0.93;0.70;;;3.70;1.40;;;4.24;100.00;93737.34;619666;222;32077;-77
2021/12/02 05:55:17;;;;;;;0.40;0.30;;;3.60;1.40;;;4.22;100.00;93738.95;646872;216;31493;-75
2021/12/02 05:57:59;;;;;;;0.40;0.20;;;3.60;1.40;;;4.27;100.00;93739.41;618807;226;31841;-74
2021/12/02 06:00:41;;;;;;;;;;;3.70;1.40;;;4.32;100.00;93740.59;652339;212;24910;-76
2021/12/02 06:03:28;;;;;;;;;;;3.80;1.40;;;4.32;100.00;93744.41;622480;227;24893;-77
2021/12/02 06:06:15;;;;;;;;;;;3.70;1.40;;;4.30;100.00;93738.56;641551;212;24848;-75
2021/12/02 06:08:54;;;;;;;;;;;3.60;1.40;;;4.32;100.00;93741.42;649472;214;24832;-76
2021/12/02 06:11:35;;;;;;;;;;;3.60;1.40;;;4.31;100.00;93742.61;649344;215;24845;-77
2021/12/02 06:14:16;;;;;;;;;;;3.70;1.40;;;4.32;100.00;93748.22;652615;216;24827;-76
2021/12/02 06:17:01;;;;;;;;;;;3.70;1.40;;;4.31;100.00;93750.41;649896;215;24833;-76
2021/12/02 06:19:42;;;;;;;;;;;3.70;1.40;;;4.26;100.00;93750.91;653383;216;24829;-76
2021/12/02 06:22:23;;;;;;;;;;;3.80;1.40;;;4.24;100.00;93755.91;654270;212;24826;-75
2021/12/02 06:27:53;;;;;;;;;;;3.80;1.40;;;4.29;100.00;93756.46;652629;216;24850;-76
2021/12/02 06:30:36;;;;;;;;;;;3.90;1.40;;;4.28;100.00;93760.11;652295;216;25037;-76
2021/12/02 06:35:51;;;;;;;0.40;0.30;;;3.90;1.40;;;4.23;100.00;93757.48;646782;216;31518;-75
2021/12/02 06:38:36;;;;;;;0.70;0.40;;;3.90;1.40;;;4.21;100.00;93764.35;646689;216;31496;-76
2021/12/02 06:41:18;;;;;;;0.40;0.30;;;3.90;1.40;;;4.27;100.00;93767.09;647133;216;31490;-76
2021/12/02 06:43:59;;;;;;;0.40;0.20;;;4.00;1.40;;;4.20;100.00;93764.41;645556;212;31494;-76
2021/12/02 06:46:41;;;;;;;;;;;3.80;1.40;;;4.16;100.00;93767.91;622179;226;24776;-76
2021/12/02 06:49:22;;;;;;;;;;;3.70;1.40;;;4.23;100.00;93769.17;652920;216;24758;-76
2021/12/02 06:52:09;;;;;;;;;;;3.80;1.40;;;4.28;100.00;93773.16;653367;212;24809;-75
2021/12/02 06:54:48;;;;;;;;;;;3.90;1.40;;;4.23;100.00;93779.95;654062;216;24859;-76
2021/12/02 06:57:30;;;;;;;;;;;3.90;1.40;;;4.24;100.00;93779.72;653674;212;24722;-76
2021/12/02 07:00:12;;;;;;;;;;;3.80;1.40;;;4.21;100.00;93777.34;651359;213;25441;-76
2021/12/02 07:02:53;;;;;;;;;;;3.80;1.40;;;4.20;100.00;93788.39;653591;212;24824;-76
2021/12/02 07:05:34;;;;;;;;;;;3.70;1.40;;;4.22;100.00;93786.74;643778;212;25472;-76
2021/12/02 07:08:16;;;;;;;;;;;3.70;1.40;;;4.24;100.00;93796.41;653430;212;25629;-78
2021/12/02 07:10:59;;;;;;;;;;;3.80;1.40;;;4.18;100.00;93796.45;653699;212;24845;-78
2021/12/02 07:13:40;;;;;;;;;;;3.80;1.40;;;4.24;100.00;93791.26;654605;216;24946;-79
2021/12/02 07:16:27;;;;;;;;;;;3.80;1.40;;;4.28;100.00;93778.09;647716;216;24848;-75
2021/12/02 07:19:15;;;;;;;;;;;3.90;1.40;;;4.32;100.00;93782.30;655107;212;25216;-78
2021/12/02 07:21:56;;;;;;;;;;;3.90;1.40;;;4.27;100.00;93781.05;653426;216;24830;-79
2021/12/02 07:24:37;;;;;;;;;;;3.90;1.40;;;4.23;100.00;93787.20;653829;216;25254;-77
2021/12/02 07:27:19;;;;;;;;;;;3.70;1.40;;;4.23;100.00;93790.41;653883;212;25369;-78
2021/12/02 07:30:00;;;;;;;;;;;3.80;1.40;;;4.26;100.00;93788.56;648805;215;24820;-78
2021/12/02 07:32:41;;;;;;;;;;;3.80;1.40;;;4.29;100.00;93790.58;653388;212;24812;-77
2021/12/02 07:35:51;;;;;;;1.50;0.40;;;3.80;1.40;;;4.34;100.00;93793.19;647750;212;31529;-78
2021/12/02 07:38:33;;;;;;;0.40;0.30;;;3.90;1.40;;;4.41;100.00;93790.92;646883;216;31834;-78
2021/12/02 07:41:17;;;;;;;0.50;0.50;;;3.90;1.40;;;4.33;100.00;93796.47;619498;225;42475;-78
2021/12/02 07:44:05;;;;;;;0.90;0.90;;;3.80;1.40;;;4.36;100.00;93796.89;643403;215;31515;-78
2021/12/02 07:46:50;;;;;;;0.40;0.30;;;3.80;1.40;;;4.44;100.00;93794.98;645766;212;31491;-78
2021/12/02 07:49:31;;;;;;;0.40;0.30;;;3.90;1.40;;;4.48;100.00;93796.66;647077;212;32028;-78
2021/12/02 07:52:13;;;;;;;1.10;0.40;;;3.90;1.40;;;4.53;100.00;93796.48;648689;212;31887;-78
2021/12/02 07:54:58;;;;;;;0.40;0.30;;;4.00;1.40;;;4.52;100.00;93795.16;646603;216;31497;-77
2021/12/02 07:57:40;;;;;;;0.40;0.30;;;4.00;1.40;;;4.62;100.00;93789.00;647081;216;31453;-77
2021/12/02 08:00:23;;;;;;;1.10;1.00;;;4.00;1.40;;;4.79;100.00;93792.88;647679;212;31507;-78
2021/12/02 08:03:04;;;;;;;0.90;0.65;;;4.10;1.40;;;4.68;100.00;93793.16;641999;215;31709;-78
2021/12/02 08:05:46;;;;;;;0.50;0.50;;;4.10;1.40;;;4.80;100.00;93797.42;613678;222;32143;-78
2021/12/02 08:08:28;;;;;;;0.70;0.50;;;4.20;1.40;;;4.88;100.00;93797.87;647573;216;31518;-77
2021/12/02 08:11:14;;;;;;;0.40;0.30;;;4.30;1.40;;;5.08;100.00;93795.79;647314;212;31485;-78
2021/12/02 08:13:57;;;;;;;0.40;0.20;;;4.40;1.40;;;5.24;100.00;93798.94;647898;216;31890;-77
2021/12/02 08:16:42;;;;;;;0.40;0.30;;;4.60;1.40;;;5.47;100.00;93799.64;647783;216;42668;-77
2021/12/02 08:19:24;;;;;;;0.40;0.20;;;4.90;1.40;;;5.56;100.00;93794.49;619673;226;43022;-78
2021/12/02 08:22:05;;;;;;;0.40;0.20;;;4.90;1.40;;;5.80;100.00;93802.37;647400;216;31501;-78
2021/12/02 08:26:24;;;;;;;0.70;0.60;;;5.10;1.40;;;5.83;100.00;93799.33;647805;213;34391;-78
2021/12/02 08:29:06;;;;;;;0.40;0.40;;;5.10;1.40;;;5.77;100.00;93797.58;619521;226;42473;-78
2021/12/02 08:31:56;;;;;;;0.40;0.30;;;4.90;1.40;;;5.48;100.00;93797.88;646398;214;31541;-78
2021/12/02 08:35:54;;;;;;;1.00;0.30;;;4.80;1.40;;;5.55;100.00;93796.77;648099;216;31481;-78
2021/12/02 08:38:44;;;;;;;0.40;0.40;;;4.80;1.40;;;5.64;100.00;93792.70;647099;216;31939;-77
2021/12/02 08:41:31;;;;;;;0.60;0.40;;;5.00;1.40;;;5.76;100.00;93785.31;647825;216;31464;-79
2021/12/02 08:44:13;;;;;;;0.93;0.88;;;5.00;1.40;;;5.83;100.00;93793.23;647443;216;31530;-78
2021/12/02 08:46:54;;;;;;;0.40;0.20;;;5.30;1.40;;;6.15;100.00;93791.27;647500;216;42227;-78
2021/12/02 08:49:35;;;;;;;0.80;0.50;;;5.50;1.40;;;6.40;100.00;93784.44;646421;216;31518;-78
2021/12/02 08:52:22;;;;;;;0.50;0.43;;;5.60;1.40;;;6.25;100.00;93783.36;646712;216;31563;-76
2021/12/02 08:55:10;;;;;;;0.40;0.40;;;5.20;1.40;;;6.17;100.00;93788.38;647891;212;31549;-78
2021/12/02 08:57:55;;;;;;;0.70;0.30;;;5.10;1.40;;;5.96;100.00;93785.20;619567;222;31870;-79
2021/12/02 09:00:39;;;;;;;0.40;0.30;;;5.20;1.40;;;6.69;100.00;93785.22;642742;215;31476;-78
2021/12/02 09:03:19;;;;;;;1.20;0.30;;;6.80;1.40;;;6.76;100.00;93787.60;647485;216;31671;-78
2021/12/02 09:06:00;;;;;;;0.70;0.40;;;6.70;1.40;;;8.27;100.00;93784.00;618643;222;33237;-78
2021/12/02 09:08:42;;;;;;;1.10;0.50;;;9.30;1.40;;;9.75;100.00;93790.17;647650;212;31609;-79
2021/12/02 09:11:30;;;;;;;0.40;0.40;;;9.70;1.40;;;9.45;100.00;93790.08;620129;226;31861;-76
2021/12/02 09:16:51;;;;;;;1.60;0.37;;;7.20;1.40;;;7.90;100.00;93792.23;619682;222;32397;-78
2021/12/02 09:19:33;;;;;;;0.60;0.30;;;6.00;1.40;;;6.91;100.00;93791.10;646439;212;42507;-78
2021/12/02 09:22:21;;;;;;;1.87;0.30;;;5.60;1.40;;;6.59;100.00;93796.45;619223;226;31817;-76
2021/12/02 09:25:10;;;;;;;1.20;0.40;;;5.30;1.40;;;6.26;100.00;93801.44;619809;222;31978;-78
2021/12/02 09:30:34;;;;;;;0.40;0.30;;;5.20;1.40;;;6.03;100.00;93800.80;643283;217;31630;-78
2021/12/02 09:35:58;;;;;;;0.40;0.20;;;5.10;1.40;;;5.96;100.00;93802.65;646163;216;31520;-75
2021/12/02 09:38:45;;;;;;;0.80;0.43;;;5.20;1.40;;;6.06;100.00;93806.88;622023;226;31853;-78
2021/12/02 09:41:27;;;;;;;0.40;0.20;;;5.20;1.40;;;6.10;100.00;93792.67;618936;226;32457;-78
2021/12/02 09:44:15;;;;;;;0.40;0.20;;;5.30;1.40;;;6.33;100.00;93793.50;647003;216;42110;-77
2021/12/02 09:46:57;;;;;;;0.40;0.30;;;5.40;1.40;;;6.01;100.00;93804.03;619849;226;43046;-75
2021/12/02 09:49:41;;;;;;;1.50;0.50;;;5.20;1.40;;;5.77;100.00;93791.97;647435;212;31583;-75
2021/12/02 09:52:30;;;;;;;0.40;0.20;;;5.10;1.40;;;5.79;100.00;93783.75;645741;212;31515;-75
2021/12/02 09:57:44;;;;;;;1.00;0.40;;;5.40;1.40;;;6.14;100.00;93783.10;618460;226;42477;-76
2021/12/02 10:03:21;;;;;;;0.70;0.40;;;5.90;1.40;;;6.81;100.00;93766.94;647421;216;31487;-75
2021/12/02 10:06:05;;;;;;;0.40;0.30;;;6.10;1.40;;;6.59;100.00;93767.79;610178;222;43354;-78
2021/12/02 10:08:54;;;;;;;0.50;0.30;;;5.70;1.40;;;6.51;100.00;93762.72;647243;213;31479;-76
2021/12/02 10:14:41;;;;;;;0.60;0.40;;;5.70;1.40;;;6.43;100.00;93758.98;646988;216;31507;-75
2021/12/02 10:17:33;;;;;;;0.40;0.20;;;5.60;1.40;;;6.37;100.00;93753.05;647943;215;31578;-79
2021/12/02 10:23:04;;;;;;;0.60;0.40;;;5.80;1.40;;;6.53;100.00;93754.06;645025;216;31621;-75
2021/12/02 10:25:47;;;;;;;1.80;0.40;;;5.70;1.40;;;6.23;100.00;93762.03;619633;222;31853;-75
2021/12/02 10:28:29;;;;;;;0.40;0.30;;;5.50;1.40;;;6.10;100.00;93751.67;646171;212;31545;-75
2021/12/02 10:31:10;;;;;;;1.00;0.50;;;5.40;1.40;;;6.22;100.00;93760.74;642041;217;31522;-75
2021/12/02 10:35:57;;;;;;;0.50;0.40;;;5.40;1.40;;;6.15;100.00;93754.30;646354;216;31471;-76
2021/12/02 10:38:40;;;;;;;0.40;0.30;;;5.40;1.40;;;6.12;100.00;93751.99;645717;212;31487;-78
2021/12/02 10:41:22;;;;;;;0.40;0.20;;;5.40;1.40;;;6.22;100.00;93742.27;646863;212;42708;-76
2021/12/02 10:44:20;;;;;;;0.75;0.40;;;5.40;1.40;;;6.16;100.00;93745.65;647700;212;42753;-79
2021/12/02 10:47:05;;;;;;;0.60;0.60;;;5.40;1.40;;;6.25;100.00;93741.38;625822;222;23531;-78
2021/12/02 10:49:52;;;;;;;0.40;0.20;;;5.40;1.40;;;6.33;100.00;93737.67;646679;212;42216;-75
2021/12/02 10:52:37;;;;;;;0.80;0.30;;;5.50;1.40;;;6.24;100.00;93730.69;646799;212;31711;-78
2021/12/02 10:55:22;;;;;;;0.40;0.30;;;5.40;1.40;;;6.19;100.00;93736.39;619311;226;43082;-77
2021/12/02 10:58:06;;;;;;;1.20;0.30;;;5.40;1.40;;;6.11;100.00;93724.91;621408;226;32390;-78
2021/12/02 11:00:53;;;;;;;0.40;0.20;;;5.40;1.40;;;6.17;100.00;93724.64;617897;222;31824;-77
2021/12/02 11:03:43;;;;;;;0.40;0.30;;;5.40;1.40;;;6.17;100.00;93739.74;620225;222;42655;-78
2021/12/02 11:06:42;;;;;;;1.20;0.50;;;5.40;1.40;;;6.33;100.00;93727.41;639598;216;31695;-76
2021/12/02 11:09:29;;;;;;;0.40;0.20;;;5.60;1.40;;;6.52;100.00;93720.28;617738;222;31861;-74
2021/12/02 11:12:33;;;;;;;0.50;0.40;;;5.60;1.40;;;6.37;100.00;93714.61;643207;213;31480;-75
2021/12/02 11:15:19;;;;;;;0.40;0.30;;;5.50;1.40;;;6.24;100.00;93708.41;647530;212;31464;-78
2021/12/02 11:18:02;;;;;;;0.40;0.30;;;5.60;1.40;;;6.25;100.00;93723.30;648569;212;42104;-79
2021/12/02 11:20:46;;;;;;;0.40;0.20;;;5.50;1.40;;;6.22;100.00;93712.89;619166;226;36713;-75
2021/12/02 11:23:41;;;;;;;0.40;0.30;;;5.50;1.40;;;6.35;100.00;93704.56;647237;216;31512;-77
2021/12/02 11:26:18;;;;;;;0.40;0.30;;;5.50;1.40;;;6.40;100.00;93702.23;648032;212;42134;-78
2021/12/02 11:29:00;;;;;;;0.40;0.20;;;5.70;1.40;;;6.49;100.00;93702.41;646452;212;31769;-78
2021/12/02 11:31:44;;;;;;;0.40;0.20;;;5.70;1.40;;;6.63;100.00;93704.10;645664;216;31500;-75
2021/12/02 11:35:57;;;;;;;0.40;0.20;;;5.90;1.40;;;6.61;100.00;93707.45;641369;217;42109;-75
2021/12/02 11:38:39;;;;;;;0.40;0.30;;;5.80;1.40;;;6.34;100.00;93692.72;644998;214;31479;-75
2021/12/02 11:41:23;;;;;;;0.40;0.28;;;5.70;1.40;;;6.30;100.00;93696.77;645733;216;31511;-75
2021/12/02 11:44:05;;;;;;;0.40;0.20;;;5.70;1.40;;;6.35;100.00;93691.97;619445;222;31929;-75
2021/12/02 11:46:54;;;;;;;0.40;0.20;;;5.60;1.40;;;6.56;100.00;93693.55;630417;221;31792;-77
2021/12/02 11:49:41;;;;;;;0.40;0.40;;;5.80;1.40;;;6.71;100.00;93687.22;645984;216;31591;-75
2021/12/02 11:52:24;;;;;;;0.90;0.40;;;6.10;1.40;;;6.73;100.00;93687.78;647369;216;31472;-76
2021/12/02 11:55:15;;;;;;;1.70;0.30;;;5.90;1.40;;;6.70;100.00;93689.99;646433;212;31555;-76
2021/12/02 11:58:05;;;;;;;0.40;0.40;;;5.90;1.40;;;6.65;100.00;93684.22;631645;217;31748;-77
2021/12/02 12:00:49;;;;;;;0.40;0.30;;;5.90;1.40;;;6.58;100.00;93680.17;647204;212;31668;-77
2021/12/02 12:03:36;;;;;;;0.40;0.30;;;5.70;1.40;;;6.42;100.00;93681.19;641468;217;33550;-77
2021/12/02 12:06:38;;;;;;;0.70;0.30;;;5.60;1.40;;;6.45;100.00;93673.86;648016;215;31473;-77
2021/12/02 12:09:27;;;;;;;0.60;0.30;;;5.70;1.40;;;6.30;100.00;93680.55;647521;216;32091;-76
2021/12/02 12:12:16;;;;;;;0.65;0.60;;;5.60;1.40;;;6.28;100.00;93674.00;641157;217;31511;-76
2021/12/02 12:15:00;;;;;;;0.50;0.40;;;5.70;1.40;;;6.41;100.00;93674.71;646933;212;31499;-77
2021/12/02 12:17:48;;;;;;;0.40;0.30;;;5.70;1.40;;;6.42;100.00;93675.33;647444;216;31670;-75
2021/12/02 12:20:53;;;;;;;0.52;0.32;;;5.70;1.40;;;6.48;100.00;93669.77;647048;212;31496;-77
2021/12/02 12:23:40;;;;;;;0.60;0.40;;;5.50;1.40;;;6.29;100.00;93667.56;620098;226;32446;-78
2021/12/02 12:26:27;;;;;;;0.40;0.30;;;5.40;1.40;;;6.06;100.00;93667.46;645812;212;31493;-78
2021/12/02 12:29:22;;;;;;;0.40;0.20;;;5.40;1.40;;;6.05;100.00;93673.41;616022;224;32350;-77
2021/12/02 12:32:17;;;;;;;0.40;0.20;;;5.30;1.40;;;5.91;100.00;93672.80;642043;215;31530;-75
2021/12/02 12:38:42;;;;;;;0.40;0.20;;;5.40;1.40;;;6.06;100.00;93682.56;646732;216;31970;-77
2021/12/02 12:41:23;;;;;;;0.40;0.20;;;5.40;1.40;;;6.14;100.00;93672.92;646474;212;42253;-77
2021/12/02 12:44:11;;;;;;;0.40;0.30;;;5.40;1.40;;;6.06;100.00;93676.59;647087;216;32233;-76
2021/12/02 12:46:58;;;;;;;0.50;0.25;;;5.40;1.40;;;6.20;100.00;93677.38;648559;216;31478;-77
2021/12/02 12:49:40;;;;;;;0.40;0.30;;;5.50;1.40;;;6.29;100.00;93666.48;648060;216;42109;-78
2021/12/02 12:52:22;;;;;;;0.50;0.20;;;5.60;1.40;;;6.34;100.00;93665.91;619428;222;33078;-77
2021/12/02 12:55:17;;;;;;;2.45;0.98;;;5.50;1.40;;;6.38;100.00;93666.79;619489;225;43219;-76
2021/12/02 12:58:10;;;;;;;0.50;0.30;;;5.60;1.40;;;6.54;100.00;93666.78;646892;212;31475;-77